Time;durP1;ratioP1;P1;durP2;ratioP2;P2;SDS_P1;SDS_P2;PMS_P1;PMS_P2;Temp;Humidity;BMP_temperature;BMP_pressure;BME280_temperature;BME280_humidity;BME280_pressure;Samples;Min_cycle;Max_cycle;Signal;HPM_P1;HPM_P2
2022/09/07 00:01:49;;;;;;;2.75;1.83;;;;;;;12.35;94.86;99295.00;4413343;32;20046;-68
2022/09/07 00:04:16;;;;;;;1.52;1.42;;;;;;;11.81;97.35;99247.16;4426871;32;20034;-70
2022/09/07 00:06:42;;;;;;;2.95;1.75;;;;;;;12.45;93.99;99294.28;4440378;32;20069;-68
2022/09/07 00:09:09;;;;;;;4.72;2.00;;;;;;;12.65;92.41;99317.97;4429260;32;20043;-71
2022/09/07 00:11:35;;;;;;;3.37;1.80;;;;;;;12.36;96.78;99331.72;4430156;32;20072;-68
2022/09/07 00:14:01;;;;;;;2.45;1.92;;;;;;;12.45;97.12;99324.00;4430430;32;20031;-69
2022/09/07 00:16:30;;;;;;;1.87;1.50;;;;;;;12.02;99.81;99302.22;4430294;32;20042;-68
2022/09/07 00:18:58;;;;;;;4.18;2.10;;;;;;;12.52;98.22;99330.00;4445211;32;20408;-69
2022/09/07 00:21:25;;;;;;;1.95;1.55;;;;;;;11.77;100.00;99322.37;4441968;32;20048;-69
2022/09/07 00:23:53;;;;;;;2.62;1.92;;;;;;;12.05;100.00;99330.59;4399272;32;20497;-69
2022/09/07 00:26:24;;;;;;;3.85;1.60;;;;;;;11.75;100.00;99294.03;4400203;32;20464;-68
2022/09/07 00:28:52;;;;;;;7.82;1.95;;;;;;;12.33;99.33;99327.66;4425655;32;20030;-69
2022/09/07 00:31:21;;;;;;;2.28;1.85;;;;;;;12.14;99.55;99323.66;4397953;32;20057;-69
2022/09/07 00:33:49;;;;;;;13.57;1.60;;;;;;;12.32;99.51;99326.03;4400227;32;20392;-69
2022/09/07 00:36:16;;;;;;;3.03;1.45;;;;;;;11.63;100.00;99297.66;4386603;32;20031;-69
2022/09/07 00:38:43;;;;;;;3.05;1.75;;;;;;;11.56;100.00;99288.94;4385895;32;20105;-69
2022/09/07 00:41:09;;;;;;;5.03;1.73;;;;;;;11.89;100.00;99324.16;4385437;32;20473;-70
2022/09/07 00:43:40;;;;;;;2.95;2.03;;;;;;;11.69;100.00;99305.81;4386984;32;20047;-68
2022/09/07 00:46:12;;;;;;;3.00;1.65;;;;;;;12.02;100.00;99331.09;4385276;32;20057;-69
2022/09/07 00:48:44;;;;;;;6.10;1.52;;;;;;;12.06;100.00;99337.59;4397518;32;20046;-68
2022/09/07 00:51:17;;;;;;;2.65;2.08;;;;;;;12.05;100.00;99323.28;4401173;32;20654;-68
2022/09/07 00:53:48;;;;;;;2.92;1.98;;;;;;;11.97;100.00;99332.66;4371500;32;20031;-69
2022/09/07 00:56:14;;;;;;;4.97;1.50;;;;;;;11.86;100.00;99295.78;4371861;32;20055;-69
2022/09/07 00:58:42;;;;;;;3.42;1.95;;;;;;;11.71;100.00;99336.88;4354847;32;20069;-73
2022/09/07 01:01:09;;;;;;;1.80;1.48;;;;;;;11.98;100.00;99336.16;4356175;32;20428;-68
2022/09/07 01:03:42;;;;;;;2.17;1.77;;;;;;;11.69;100.00;99338.19;4365814;32;20061;-68
2022/09/07 01:06:18;;;;;;;4.47;1.50;;;;;;;11.55;100.00;99300.81;4371677;32;20036;-69
2022/09/07 01:08:48;;;;;;;7.40;1.48;;;;;;;12.12;100.00;99329.31;4369084;32;20061;-70
2022/09/07 01:11:18;;;;;;;6.03;1.73;;;;;;;11.80;100.00;99291.38;4372199;32;20390;-69
2022/09/07 01:13:45;;;;;;;22.13;2.87;;;;;;;11.63;100.00;99288.75;4371353;32;20053;-69
2022/09/07 01:16:17;;;;;;;6.95;1.48;;;;;;;11.78;100.00;99290.84;4370739;32;20077;-69
2022/09/07 01:19:17;;;;;;;3.62;2.08;;;;;;;12.00;100.00;99328.63;4370057;32;20065;-68
2022/09/07 01:22:08;;;;;;;3.17;1.42;;;;;;;11.81;100.00;99301.13;4371513;32;20069;-73
2022/09/07 01:25:14;;;;;;;3.90;1.75;;;;;;;11.99;100.00;99300.00;4368316;32;20038;-68
2022/09/07 01:28:02;;;;;;;6.32;1.83;;;;;;;12.17;100.00;99318.59;4404824;32;20465;-68
2022/09/07 01:30:33;;;;;;;3.05;1.80;;;;;;;12.17;100.00;99318.59;4456416;32;20030;-68
2022/09/07 01:33:37;;;;;;;2.60;1.73;;;;;;;11.87;100.00;99313.63;4429900;32;20043;-69
2022/09/07 01:36:16;;;;;;;5.43;1.92;;;;;;;11.77;100.00;99308.06;4416431;32;20375;-71
2022/09/07 01:38:52;;;;;;;2.85;1.75;;;;;;;11.88;100.00;99315.22;4415281;32;20047;-68
2022/09/07 01:41:37;;;;;;;9.73;2.08;;;;;;;11.86;100.00;99285.00;4396495;32;20400;-69
2022/09/07 01:44:27;;;;;;;2.12;1.45;;;;;;;11.80;99.61;99275.19;4340238;33;20051;-69
2022/09/07 01:47:00;;;;;;;3.00;1.40;;;;;;;12.06;100.00;99305.22;4340832;32;20037;-69
2022/09/07 01:49:33;;;;;;;4.65;1.55;;;;;;;11.94;100.00;99308.06;4353997;32;20439;-69
2022/09/07 01:52:06;;;;;;;3.17;1.80;;;;;;;11.82;100.00;99303.56;4356695;32;20028;-69
2022/09/07 01:54:58;;;;;;;3.67;1.40;;;;;;;11.73;100.00;99298.88;4357411;32;20039;-69
2022/09/07 01:57:30;;;;;;;6.45;2.00;;;;;;;11.98;100.00;99287.56;4371411;32;20397;-69
2022/09/07 02:00:03;;;;;;;2.65;1.90;;;;;;;12.05;98.54;99287.41;4384629;32;20047;-69
2022/09/07 02:02:44;;;;;;;6.03;2.10;;;;;;;11.93;98.72;99295.62;4384846;32;20030;-74
2022/09/07 02:05:18;;;;;;;3.58;1.52;;;;;;;11.63;100.00;99253.69;4368764;32;20903;-69
2022/09/07 02:07:51;;;;;;;2.60;2.00;;;;;;;11.67;100.00;99286.38;4370594;32;20073;-68
2022/09/07 02:10:21;;;;;;;5.50;1.45;;;;;;;11.58;100.00;99257.16;4356210;32;20044;-69
2022/09/07 02:13:00;;;;;;;4.57;1.75;;;;;;;11.47;100.00;99274.25;4369902;32;20035;-67
2022/09/07 02:15:37;;;;;;;1.55;1.45;;;;;;;11.81;98.12;99249.88;4403041;32;20042;-68
2022/09/07 02:18:06;;;;;;;1.90;1.33;;;;;;;11.71;100.00;99280.25;4413289;32;20070;-68
2022/09/07 02:20:38;;;;;;;2.08;1.27;;;;;;;11.75;99.83;99272.44;4398962;32;20139;-69
2022/09/07 02:23:18;;;;;;;3.28;1.90;;;;;;;11.97;99.44;99284.06;4401295;32;20387;-69
2022/09/07 02:25:51;;;;;;;2.47;1.73;;;;;;;11.39;98.04;99193.81;4401077;32;20038;-68
2022/09/07 02:28:24;;;;;;;2.75;1.50;;;;;;;11.80;98.34;99284.09;4398056;32;20509;-70
2022/09/07 02:30:51;;;;;;;2.37;2.17;;;;;;;12.15;96.27;99287.50;4400503;32;20043;-69
2022/09/07 02:33:17;;;;;;;5.72;1.50;;;;;;;11.84;97.32;99281.75;4385664;32;20049;-68
2022/09/07 02:35:50;;;;;;;3.67;1.60;;;;;;;11.93;96.51;99291.03;4375359;32;20066;-73
2022/09/07 02:38:18;;;;;;;3.83;1.55;;;;;;;11.69;100.00;99278.84;4384731;32;20043;-68
2022/09/07 02:40:51;;;;;;;5.45;1.77;;;;;;;11.68;100.00;99288.00;4385578;32;20051;-68
2022/09/07 02:43:20;;;;;;;10.77;2.03;;;;;;;11.24;100.00;99208.72;4385210;32;20464;-70
2022/09/07 02:45:52;;;;;;;3.42;1.52;;;;;;;11.69;99.85;99278.84;4372420;32;20133;-68
2022/09/07 02:48:52;;;;;;;2.70;1.80;;;;;;;11.70;99.93;99280.50;4385062;32;20445;-68
2022/09/07 02:51:35;;;;;;;2.37;1.75;;;;;;;11.46;100.00;99240.28;4391024;32;20396;-68
2022/09/07 02:54:20;;;;;;;;;;;;;;;11.55;100.00;99241.47;4364336;32;20081;-68
2022/09/07 02:57:09;;;;;;;3.28;1.60;;;;;;;11.87;100.00;99270.44;4370012;32;19944;-68
2022/09/07 02:59:55;;;;;;;1.80;1.70;;;;;;;11.48;100.00;99267.78;4370438;32;20416;-68
2022/09/07 03:02:50;;;;;;;3.92;1.67;;;;;;;11.55;100.00;99267.59;4355529;32;20036;-68
2022/09/07 03:05:32;;;;;;;3.50;1.33;;;;;;;11.58;100.00;99257.16;4357324;32;20444;-68
2022/09/07 03:08:05;;;;;;;4.37;1.70;;;;;;;11.52;100.00;99260.00;4367587;32;20069;-68
2022/09/07 03:10:33;;;;;;;4.72;1.80;;;;;;;11.49;100.00;99261.34;4381074;32;20030;-68
2022/09/07 03:12:59;;;;;;;2.05;1.40;;;;;;;11.45;100.00;99236.78;4400354;32;20080;-69
2022/09/07 03:15:27;;;;;;;4.03;2.67;;;;;;;11.49;100.00;99253.25;4391190;32;20170;-69
2022/09/07 03:17:53;;;;;;;4.97;1.70;;;;;;;11.32;100.00;99257.88;4425102;32;20066;-68
2022/09/07 03:20:20;;;;;;;4.72;2.05;;;;;;;10.93;100.00;99255.16;4429933;32;20175;-68
2022/09/07 03:22:49;;;;;;;3.33;1.33;;;;;;;10.80;100.00;99203.28;4417092;32;20023;-69
2022/09/07 03:25:16;;;;;;;4.35;2.08;;;;;;;11.66;100.00;99263.16;4455532;32;20038;-68
2022/09/07 03:27:42;;;;;;;4.10;2.15;;;;;;;11.08;100.00;99233.84;4463061;32;20033;-72
2022/09/07 03:30:10;;;;;;;3.00;1.70;;;;;;;11.31;100.00;99262.44;4477366;32;20034;-69
2022/09/07 03:32:37;;;;;;;3.35;1.65;;;;;;;10.83;100.00;99224.34;4430659;32;20034;-68
2022/09/07 03:35:06;;;;;;;3.35;1.77;;;;;;;10.92;100.00;99207.75;4430542;32;20038;-68
2022/09/07 03:37:35;;;;;;;4.97;2.15;;;;;;;11.23;100.00;99223.28;4429205;32;20022;-68
2022/09/07 03:40:04;;;;;;;7.25;2.00;;;;;;;10.80;100.00;99197.88;4412316;32;20064;-69
2022/09/07 03:42:30;;;;;;;5.35;2.55;;;;;;;11.53;100.00;99265.16;4413377;32;20507;-68
2022/09/07 03:44:56;;;;;;;3.55;2.10;;;;;;;11.11;100.00;99252.19;4414935;32;20060;-69
2022/09/07 03:47:23;;;;;;;11.27;2.15;;;;;;;11.30;100.00;99260.03;4414416;32;20430;-69
2022/09/07 03:49:50;;;;;;;9.85;2.20;;;;;;;11.29;100.00;99258.38;4383424;32;20539;-72
2022/09/07 03:52:16;;;;;;;5.43;1.90;;;;;;;10.89;100.00;99235.97;4376966;32;20028;-69
2022/09/07 03:54:43;;;;;;;2.42;2.22;;;;;;;10.94;100.00;99248.72;4369724;32;20066;-68
2022/09/07 03:57:09;;;;;;;6.12;1.95;;;;;;;11.03;100.00;99276.87;4369770;32;20062;-68
2022/09/07 03:59:35;;;;;;;10.80;1.90;;;;;;;11.07;100.00;99278.00;4369844;32;20036;-68
2022/09/07 04:02:02;;;;;;;2.55;1.50;;;;;;;10.80;100.00;99240.97;4377870;32;20061;-68
2022/09/07 04:04:29;;;;;;;4.20;2.00;;;;;;;10.87;100.00;99230.84;4409762;32;20072;-69
2022/09/07 04:06:55;;;;;;;7.55;2.22;;;;;;;11.22;100.00;99280.94;4414724;32;20068;-69
2022/09/07 04:09:21;;;;;;;3.45;1.70;;;;;;;10.87;100.00;99241.63;4414905;32;20027;-68
2022/09/07 04:11:48;;;;;;;16.98;2.78;;;;;;;11.07;100.00;99241.09;4441201;32;20042;-73
2022/09/07 04:14:15;;;;;;;1.98;1.85;;;;;;;11.08;100.00;99260.78;4447102;32;20029;-68
2022/09/07 04:16:41;;;;;;;5.07;1.87;;;;;;;10.90;100.00;99235.72;4448981;32;20428;-69
2022/09/07 04:19:08;;;;;;;3.00;1.70;;;;;;;11.13;100.00;99271.63;4448919;32;20067;-69
2022/09/07 04:21:34;;;;;;;3.70;1.90;;;;;;;10.89;100.00;99265.62;4469112;32;20081;-69
2022/09/07 04:24:01;;;;;;;9.55;2.10;;;;;;;10.68;100.00;99218.69;4479591;32;20086;-69
2022/09/07 04:26:31;;;;;;;6.05;1.70;;;;;;;11.09;100.00;99248.94;4481775;32;20090;-68
2022/09/07 04:28:58;;;;;;;3.22;1.62;;;;;;;11.03;100.00;99218.41;4481917;32;20055;-68
2022/09/07 04:31:24;;;;;;;8.90;1.35;;;;;;;11.07;100.00;99219.56;4482263;32;20392;-68
2022/09/07 04:33:51;;;;;;;5.32;2.33;;;;;;;11.09;100.00;99216.63;4480178;32;20041;-73
2022/09/07 04:36:19;;;;;;;4.05;1.40;;;;;;;11.22;100.00;99227.03;4481455;32;20104;-69
2022/09/07 04:38:45;;;;;;;2.05;1.73;;;;;;;11.48;99.49;99240.84;4433033;32;20039;-68
2022/09/07 04:41:16;;;;;;;2.90;1.40;;;;;;;11.60;97.99;99252.31;4417762;32;20529;-69
2022/09/07 04:43:43;;;;;;;4.00;1.45;;;;;;;11.59;96.15;99258.78;4400435;32;20053;-70
2022/09/07 04:46:18;;;;;;;2.72;1.65;;;;;;;11.89;95.84;99254.00;4385614;32;20379;-69
2022/09/07 04:48:49;;;;;;;2.45;1.62;;;;;;;11.93;97.04;99263.25;4386029;32;20435;-69
2022/09/07 04:51:16;;;;;;;2.75;2.55;;;;;;;11.90;98.23;99256.44;4386468;32;20065;-69
2022/09/07 04:53:46;;;;;;;1.45;1.35;;;;;;;11.71;93.56;99222.75;4384077;32;20104;-68
2022/09/07 04:56:12;;;;;;;6.60;2.25;;;;;;;11.42;93.35;99166.34;4385812;32;20047;-68
2022/09/07 04:58:38;;;;;;;2.28;1.60;;;;;;;11.80;94.42;99242.84;4386604;32;20372;-69
2022/09/07 05:01:05;;;;;;;5.68;2.20;;;;;;;11.58;94.74;99203.22;4386223;32;20413;-69
2022/09/07 05:03:36;;;;;;;3.62;1.62;;;;;;;12.06;92.55;99252.06;4340841;33;20048;-74
2022/09/07 05:06:06;;;;;;;3.65;1.90;;;;;;;11.94;93.41;99254.09;4341088;33;21009;-69
2022/09/07 05:08:41;;;;;;;6.68;2.05;;;;;;;11.77;94.02;99202.88;4342215;33;20044;-69
2022/09/07 05:11:09;;;;;;;13.15;1.45;;;;;;;11.98;94.84;99236.31;4343365;32;20050;-69
2022/09/07 05:13:36;;;;;;;2.22;1.50;;;;;;;11.96;94.33;99241.94;4355048;32;20089;-69
2022/09/07 05:16:12;;;;;;;7.75;2.25;;;;;;;11.66;93.71;99190.34;4385669;32;20031;-69
2022/09/07 05:18:38;;;;;;;5.28;2.35;;;;;;;11.99;93.00;99198.28;4416555;32;20038;-68
2022/09/07 05:21:12;;;;;;;8.00;1.55;;;;;;;12.24;91.80;99225.75;4418051;32;20422;-71
2022/09/07 05:23:40;;;;;;;2.95;1.67;;;;;;;12.24;90.01;99205.00;4402032;32;20069;-69
2022/09/07 05:26:07;;;;;;;3.85;2.85;;;;;;;12.57;89.85;99243.59;4401988;32;20501;-69
2022/09/07 05:28:34;;;;;;;3.03;2.35;;;;;;;12.39;92.88;99244.00;4373478;32;20031;-69
2022/09/07 05:31:06;;;;;;;10.70;2.08;;;;;;;12.27;90.12;99204.50;4373727;32;20039;-73
2022/09/07 05:33:33;;;;;;;7.93;2.10;;;;;;;12.74;89.87;99256.19;4372706;32;20117;-69
2022/09/07 05:35:59;;;;;;;14.40;2.05;;;;;;;12.66;88.34;99241.25;4412618;32;20443;-69
2022/09/07 05:38:27;;;;;;;10.95;2.05;;;;;;;12.39;91.98;99225.09;4406661;32;20057;-69
2022/09/07 05:40:53;;;;;;;10.73;1.85;;;;;;;12.77;89.15;99239.47;4371104;32;20101;-74
2022/09/07 05:43:21;;;;;;;3.47;1.80;;;;;;;12.56;91.96;99223.09;4395635;32;20038;-75
2022/09/07 05:45:48;;;;;;;3.53;1.27;;;;;;;12.53;89.46;99208.19;4400301;32;20866;-75
2022/09/07 05:48:15;;;;;;;4.78;2.08;;;;;;;12.63;92.96;99245.28;4352657;32;20032;-74
2022/09/07 05:50:52;;;;;;;3.55;1.73;;;;;;;13.03;91.19;99249.34;4355511;32;20031;-74
2022/09/07 05:53:19;;;;;;;9.57;2.35;;;;;;;13.36;88.61;99258.25;4352710;32;20070;-74
2022/09/07 05:55:49;;;;;;;8.70;1.90;;;;;;;12.78;90.74;99189.72;4382890;32;20436;-74
2022/09/07 05:58:17;;;;;;;6.18;2.17;;;;;;;13.42;88.54;99259.91;4384292;32;20031;-75
2022/09/07 06:00:44;;;;;;;5.65;1.87;;;;;;;13.32;90.52;99251.69;4398281;32;20454;-75
2022/09/07 06:03:12;;;;;;;5.47;1.80;;;;;;;13.36;86.73;99252.81;4398845;32;20034;-78
2022/09/07 06:05:58;;;;;;;3.10;2.05;;;;;;;13.15;87.77;99251.06;4387148;32;20043;-74
2022/09/07 06:08:26;;;;;;;8.70;2.15;;;;;;;13.27;86.50;99257.91;4400525;32;20035;-74
2022/09/07 06:10:52;;;;;;;3.45;1.48;;;;;;;13.47;84.70;99259.13;4401472;32;20034;-74
2022/09/07 06:13:19;;;;;;;7.10;1.85;;;;;;;13.34;86.03;99255.00;4398209;32;20031;-75
2022/09/07 06:15:47;;;;;;;7.28;2.45;;;;;;;13.30;87.72;99248.44;4387978;32;20067;-74
2022/09/07 06:18:14;;;;;;;5.43;2.42;;;;;;;13.43;91.15;99237.19;4389376;32;20399;-74
2022/09/07 06:20:40;;;;;;;12.48;2.58;;;;;;;13.60;87.92;99230.75;4415311;32;20379;-74
2022/09/07 06:23:08;;;;;;;4.07;2.40;;;;;;;13.79;88.70;99234.62;4402188;32;20529;-76
2022/09/07 06:25:34;;;;;;;8.27;1.87;;;;;;;13.98;86.55;99239.56;4383797;32;20035;-74
2022/09/07 06:28:02;;;;;;;3.53;1.70;;;;;;;13.77;93.45;99242.19;4384981;32;20036;-73
2022/09/07 06:30:29;;;;;;;3.58;1.58;;;;;;;13.93;90.51;99239.53;4372842;32;20050;-74
2022/09/07 06:32:56;;;;;;;14.52;2.15;;;;;;;14.13;85.77;99241.47;4369210;32;20053;-74
2022/09/07 06:35:28;;;;;;;11.30;1.67;;;;;;;14.14;89.38;99243.91;4338759;33;20091;-79
2022/09/07 06:37:58;;;;;;;15.43;2.47;;;;;;;14.21;87.92;99253.66;4341021;33;20198;-74
2022/09/07 06:40:35;;;;;;;9.70;2.53;;;;;;;14.38;85.69;99251.53;4328390;33;20044;-74
2022/09/07 06:43:21;;;;;;;7.03;2.22;;;;;;;14.48;83.63;99219.03;4339829;33;20103;-79
2022/09/07 06:45:53;;;;;;;11.25;2.62;;;;;;;14.61;85.44;99266.47;4325441;33;20140;-74
2022/09/07 06:48:27;;;;;;;7.18;1.42;;;;;;;14.65;86.96;99251.31;4313469;33;20045;-74
2022/09/07 06:53:57;;;;;;;;;;;;;;;14.68;92.54;99255.38;4311022;33;20468;-74
2022/09/07 06:56:26;;;;;;;10.50;1.98;;;;;;;14.75;88.23;99242.34;4314247;33;20383;-74
2022/09/07 06:58:56;;;;;;;4.72;1.98;;;;;;;14.54;86.23;99242.31;4319211;33;20075;-74
2022/09/07 07:01:38;;;;;;;11.95;3.40;;;;;;;14.86;86.88;99238.56;4310570;33;20053;-74
2022/09/07 07:04:07;;;;;;;17.23;2.92;;;;;;;14.83;88.01;99203.84;4324867;33;20058;-79
2022/09/07 07:06:38;;;;;;;6.60;1.80;;;;;;;14.82;87.10;99250.19;4355287;32;20073;-74
2022/09/07 07:09:07;;;;;;;2.08;1.48;;;;;;;15.15;86.93;99254.22;4369664;32;20036;-74
2022/09/07 07:11:36;;;;;;;15.77;3.40;;;;;;;15.32;87.43;99253.13;4369618;32;20035;-74
2022/09/07 07:14:03;;;;;;;8.25;2.90;;;;;;;15.24;87.36;99257.22;4367885;32;20039;-79
2022/09/07 07:16:30;;;;;;;7.07;2.00;;;;;;;14.98;87.88;99242.88;4374106;32;20354;-74
2022/09/07 07:18:56;;;;;;;7.57;2.58;;;;;;;15.06;85.06;99217.91;4384330;32;20039;-74
2022/09/07 07:21:23;;;;;;;2.65;1.73;;;;;;;15.50;83.26;99255.22;4385681;32;20584;-74
2022/09/07 07:23:56;;;;;;;8.60;2.00;;;;;;;15.36;85.66;99221.63;4385418;32;20024;-79
2022/09/07 07:26:26;;;;;;;6.18;2.33;;;;;;;15.52;85.71;99215.03;4382450;32;20464;-74
2022/09/07 07:28:55;;;;;;;12.25;2.40;;;;;;;15.84;84.62;99249.13;4369639;32;20073;-74
2022/09/07 07:31:24;;;;;;;11.73;2.00;;;;;;;15.94;88.34;99254.53;4401022;32;20060;-74
2022/09/07 07:33:52;;;;;;;11.73;2.67;;;;;;;16.09;83.80;99255.53;4414965;32;20060;-74
2022/09/07 07:36:21;;;;;;;2.15;1.75;;;;;;;16.19;83.71;99250.03;4399170;32;20060;-78
2022/09/07 07:38:50;;;;;;;4.10;1.95;;;;;;;15.92;86.42;99218.72;4398922;32;20047;-74
2022/09/07 07:41:23;;;;;;;13.98;2.97;;;;;;;16.00;87.69;99246.34;4399399;32;20034;-74
2022/09/07 07:43:58;;;;;;;12.43;2.62;;;;;;;15.83;83.91;99193.22;4399161;32;20072;-74
2022/09/07 07:46:27;;;;;;;10.05;2.40;;;;;;;16.10;83.05;99197.41;4386481;32;20038;-74
2022/09/07 07:48:54;;;;;;;7.90;2.12;;;;;;;16.33;82.63;99229.28;4400927;32;20471;-73
2022/09/07 07:51:24;;;;;;;3.15;2.05;;;;;;;16.07;82.62;99236.81;4399352;32;20440;-73
2022/09/07 07:53:55;;;;;;;6.53;2.00;;;;;;;16.16;82.86;99240.56;4398893;32;20031;-73
2022/09/07 07:59:25;;;;;;;6.18;2.30;;;;;;;16.46;77.59;99248.78;4364384;32;20063;-73
2022/09/07 08:02:03;;;;;;;2.58;1.70;;;;;;;16.69;75.76;99237.19;4368736;32;20331;-74
2022/09/07 08:07:15;;;;;;;10.38;2.60;;;;;;;16.81;75.46;99235.97;4347814;33;20061;-73
2022/09/07 08:09:46;;;;;;;3.25;1.70;;;;;;;16.86;66.26;99246.84;4341020;33;20031;-74
2022/09/07 08:12:16;;;;;;;5.65;2.05;;;;;;;16.89;65.45;99246.28;4354239;33;20387;-73
2022/09/07 08:14:55;;;;;;;5.82;2.08;;;;;;;16.88;65.57;99223.72;4341687;33;20064;-73
2022/09/07 08:17:22;;;;;;;6.25;1.77;;;;;;;17.03;64.05;99241.78;4352403;33;20069;-74
2022/09/07 08:19:54;;;;;;;8.60;2.42;;;;;;;17.23;65.49;99245.38;4355816;33;20343;-73
2022/09/07 08:22:26;;;;;;;6.90;1.85;;;;;;;16.98;64.84;99239.13;4354831;33;20065;-73
2022/09/07 08:24:53;;;;;;;3.83;1.58;;;;;;;17.13;62.88;99246.31;4340689;33;20101;-77
2022/09/07 08:29:54;;;;;;;17.62;1.85;;;;;;;16.51;60.20;99232.41;4355307;33;20083;-75
2022/09/07 08:32:22;;;;;;;3.17;1.60;;;;;;;16.59;59.48;99199.19;4342083;33;20114;-75
2022/09/07 08:34:48;;;;;;;8.40;1.20;;;;;;;17.08;57.84;99242.84;4360244;32;20076;-76
2022/09/07 08:37:16;;;;;;;8.98;1.87;;;;;;;16.67;60.27;99239.37;4434109;32;20644;-75
2022/09/07 08:39:50;;;;;;;8.73;1.67;;;;;;;16.84;58.62;99238.13;4429746;32;20432;-75
2022/09/07 08:43:04;;;;;;;6.97;1.80;;;;;;;17.23;55.23;99234.50;4416873;32;20034;-75
2022/09/07 08:45:49;;;;;;;2.08;1.60;;;;;;;16.99;52.14;99235.31;4369160;32;20057;-75
2022/09/07 08:48:23;;;;;;;10.43;2.60;;;;;;;17.20;53.50;99225.03;4369579;32;20292;-74
2022/09/07 08:50:58;;;;;;;2.58;1.90;;;;;;;17.26;53.14;99217.59;4368518;32;20032;-75
2022/09/07 08:53:27;;;;;;;6.78;2.50;;;;;;;17.33;53.25;99201.75;4368917;32;20061;-80
2022/09/07 08:56:03;;;;;;;8.57;2.10;;;;;;;17.59;53.55;99236.81;4369231;32;20412;-75
2022/09/07 08:58:33;;;;;;;5.87;2.08;;;;;;;17.99;54.63;99240.16;4371830;32;20451;-75
2022/09/07 09:01:00;;;;;;;9.18;1.87;;;;;;;17.71;59.49;99206.44;4371679;32;20027;-75
2022/09/07 09:03:32;;;;;;;5.28;1.60;;;;;;;17.76;57.31;99209.91;4357997;32;20035;-76
2022/09/07 09:06:34;;;;;;;8.52;2.08;;;;;;;18.10;54.92;99208.91;4372294;32;20070;-75
2022/09/07 09:09:12;;;;;;;7.75;1.45;;;;;;;17.81;56.73;99221.84;4369475;32;20075;-75
2022/09/07 09:12:13;;;;;;;3.05;1.55;;;;;;;18.04;57.09;99231.91;4341487;33;20062;-75
2022/09/07 09:14:52;;;;;;;9.02;1.85;;;;;;;17.99;54.80;99185.66;4341723;33;20056;-75
2022/09/07 09:17:51;;;;;;;6.85;1.98;;;;;;;17.96;54.29;99221.66;4370551;32;20054;-75
2022/09/07 09:20:33;;;;;;;3.60;1.80;;;;;;;17.96;54.11;99213.50;4345592;32;20596;-75
2022/09/07 09:23:13;;;;;;;5.10;1.50;;;;;;;18.27;54.40;99213.84;4358724;32;20043;-75
2022/09/07 09:26:06;;;;;;;4.07;1.98;;;;;;;18.54;54.22;99206.91;4384830;32;20502;-75
2022/09/07 09:28:33;;;;;;;5.30;1.85;;;;;;;18.71;53.70;99195.41;4386154;32;20072;-75
2022/09/07 09:31:00;;;;;;;2.47;1.95;;;;;;;18.47;52.58;99204.53;4369987;32;20098;-81
2022/09/07 09:33:28;;;;;;;2.47;2.28;;;;;;;18.24;52.57;99195.38;4368502;32;20035;-76
2022/09/07 09:35:59;;;;;;;6.40;1.67;;;;;;;18.31;53.08;99198.50;4341400;33;20050;-75
2022/09/07 09:38:35;;;;;;;2.20;1.95;;;;;;;18.06;55.53;99197.00;4323566;33;20033;-75
2022/09/07 09:41:14;;;;;;;10.90;1.80;;;;;;;18.51;51.37;99197.38;4339145;33;20054;-76
2022/09/07 09:43:50;;;;;;;4.40;1.40;;;;;;;18.57;52.08;99189.94;4354195;32;20062;-75
2022/09/07 09:46:23;;;;;;;6.35;2.22;;;;;;;18.96;48.83;99157.91;4356026;32;20036;-75
2022/09/07 09:48:59;;;;;;;13.30;1.92;;;;;;;18.30;49.17;99157.94;4338678;33;20032;-74
2022/09/07 09:51:40;;;;;;;2.33;1.70;;;;;;;18.85;49.88;99185.37;4341124;33;20052;-74
2022/09/07 09:54:32;;;;;;;9.68;1.70;;;;;;;19.05;48.41;99153.34;4340729;33;20057;-73
2022/09/07 09:56:59;;;;;;;2.17;1.58;;;;;;;19.02;47.85;99184.00;4340598;33;20036;-73
2022/09/07 09:59:30;;;;;;;5.30;1.77;;;;;;;18.97;49.56;99175.88;4324015;33;20040;-73
2022/09/07 10:02:15;;;;;;;5.80;1.70;;;;;;;18.84;48.60;99145.56;4340359;33;20076;-73
2022/09/07 10:04:45;;;;;;;7.43;1.55;;;;;;;19.02;48.64;99175.81;4342268;33;20040;-74
2022/09/07 10:07:21;;;;;;;2.72;1.50;;;;;;;19.07;46.67;99178.44;4354450;32;20073;-73
2022/09/07 10:09:50;;;;;;;3.67;1.62;;;;;;;19.27;47.54;99141.72;4354752;32;20054;-74
2022/09/07 10:12:25;;;;;;;12.70;2.03;;;;;;;19.14;49.50;99165.19;4356542;32;20304;-73
2022/09/07 10:14:55;;;;;;;1.62;1.40;;;;;;;19.84;49.08;99168.66;4356573;32;20047;-73
2022/09/07 10:17:30;;;;;;;7.30;1.83;;;;;;;19.87;48.45;99170.78;4355387;32;20039;-74
2022/09/07 10:20:21;;;;;;;2.78;2.15;;;;;;;19.58;47.41;99158.28;4362734;32;20316;-74
2022/09/07 10:22:51;;;;;;;3.47;1.60;;;;;;;19.37;47.64;99159.81;4358113;32;20023;-73
2022/09/07 10:25:40;;;;;;;7.70;1.58;;;;;;;19.76;48.34;99161.19;4367543;32;20053;-78
2022/09/07 10:28:20;;;;;;;2.33;1.42;;;;;;;19.35;47.17;99170.22;4373577;32;20039;-74
2022/09/07 10:31:06;;;;;;;4.12;1.75;;;;;;;19.64;47.82;99163.63;4372271;32;20043;-75
2022/09/07 10:33:49;;;;;;;3.10;1.70;;;;;;;20.02;47.34;99166.06;4369973;32;20035;-74
2022/09/07 10:36:42;;;;;;;3.97;1.95;;;;;;;19.94;48.18;99137.56;4370297;32;20088;-76
2022/09/07 10:39:14;;;;;;;;;;;;;;;19.52;47.79;99164.94;4370618;32;20031;-74
2022/09/07 10:42:14;;;;;;;12.88;2.03;;;;;;;20.06;48.78;99169.81;4385127;32;19936;-73
2022/09/07 10:45:19;;;;;;;8.52;3.53;;;;;;;20.28;47.05;99164.34;4369585;32;20028;-74
2022/09/07 10:47:46;;;;;;;2.97;1.80;;;;;;;19.55;47.94;99158.09;4388039;32;20060;-73
2022/09/07 10:50:29;;;;;;;5.72;2.33;;;;;;;20.05;47.74;99154.53;4387289;32;20054;-73
2022/09/07 10:53:29;;;;;;;5.78;1.85;;;;;;;20.49;48.59;99136.50;4398160;32;20043;-78
2022/09/07 10:56:04;;;;;;;5.78;1.77;;;;;;;20.73;47.01;99146.31;4400365;32;20038;-73
2022/09/07 10:58:53;;;;;;;2.40;1.40;;;;;;;20.73;46.54;99130.69;4385140;32;20035;-78
2022/09/07 11:01:57;;;;;;;5.12;1.87;;;;;;;20.98;45.36;99121.00;4386062;32;20019;-74
2022/09/07 11:04:43;;;;;;;4.32;1.73;;;;;;;21.09;44.42;99148.06;4385478;32;20039;-74
2022/09/07 11:07:31;;;;;;;2.95;2.17;;;;;;;21.32;45.84;99146.06;4402402;32;20366;-75
2022/09/07 11:10:26;;;;;;;1.87;1.77;;;;;;;21.55;43.79;99106.47;4416269;32;20637;-74
2022/09/07 11:12:58;;;;;;;8.20;1.58;;;;;;;21.63;43.47;99135.00;4414192;32;20026;-74
2022/09/07 11:15:30;;;;;;;3.85;1.40;;;;;;;21.10;44.98;99122.31;4410766;32;20051;-73
2022/09/07 11:18:05;;;;;;;3.87;1.92;;;;;;;21.56;44.86;99096.34;4400578;32;20586;-73
2022/09/07 11:20:53;;;;;;;2.35;2.00;;;;;;;21.55;44.34;99135.81;4382804;32;20057;-80
2022/09/07 11:23:28;;;;;;;2.62;1.70;;;;;;;21.88;45.32;99140.84;4385872;32;20036;-74
2022/09/07 11:26:14;;;;;;;5.22;1.90;;;;;;;21.79;44.43;99143.56;4355727;32;20082;-75
2022/09/07 11:28:43;;;;;;;11.60;2.17;;;;;;;21.65;43.47;99137.44;4354729;32;20282;-75
2022/09/07 11:31:22;;;;;;;5.47;2.97;;;;;;;22.39;44.00;99146.63;4353931;32;20047;-75
2022/09/07 11:34:29;;;;;;;6.82;1.77;;;;;;;22.46;42.43;99139.50;4338918;33;20054;-80
2022/09/07 11:37:02;;;;;;;2.12;1.67;;;;;;;22.03;42.94;99143.06;4283901;33;20049;-74
2022/09/07 11:39:38;;;;;;;3.35;2.10;;;;;;;22.13;42.07;99137.28;4293263;33;20399;-75
2022/09/07 11:42:21;;;;;;;2.72;1.80;;;;;;;22.51;42.56;99138.53;4322044;33;20067;-74
2022/09/07 11:45:00;;;;;;;2.90;2.17;;;;;;;22.68;42.81;99134.94;4312485;33;20071;-80
2022/09/07 11:47:38;;;;;;;7.28;2.22;;;;;;;22.37;41.44;99137.91;4310891;33;20049;-75
2022/09/07 11:50:14;;;;;;;3.10;2.33;;;;;;;22.44;43.64;99097.06;4323962;33;20037;-75
2022/09/07 11:52:47;;;;;;;6.93;2.35;;;;;;;22.93;43.27;99091.22;4323765;33;20099;-75
2022/09/07 11:55:26;;;;;;;5.43;2.10;;;;;;;22.21;40.55;99089.03;4325862;33;20342;-75
2022/09/07 11:58:05;;;;;;;1.92;1.75;;;;;;;21.99;42.10;99097.47;4338592;33;20036;-74
2022/09/07 12:00:41;;;;;;;8.90;2.62;;;;;;;22.57;42.88;99095.25;4337843;33;20104;-75
2022/09/07 12:03:32;;;;;;;4.70;2.08;;;;;;;22.83;42.67;99082.25;4352093;32;20069;-75
2022/09/07 12:06:12;;;;;;;5.85;1.75;;;;;;;22.22;40.97;99081.63;4352303;32;20046;-76
2022/09/07 12:09:37;;;;;;;7.55;2.03;;;;;;;22.08;41.46;99112.78;4309798;33;20060;-75
2022/09/07 12:12:49;;;;;;;10.07;2.40;;;;;;;22.06;40.91;99111.47;4295275;33;20029;-75
2022/09/07 12:15:51;;;;;;;5.87;1.83;;;;;;;22.39;42.80;99111.78;4313881;33;20056;-75